Aiyion, Greece
Current Conditions -  °F | °C
As of 7:20 PM on Wednesday 26 Nov 2014 (Local Time) from LGRX Reporting Station
Broken Clouds Broken Clouds  
Wind Chill: 54°   Ceiling: 3000
Heat Index: 54°   Visibility: 6mi
Dew Point: 50°   Wind: 15mph
Humidity: 88%   Direction: 60°ENE
Pressure: 30.09"   Gusts: NA
Location:  38.25°N, 22.08°E
Report Text: LGRX 261720Z 06013KT 9999 BKN030 BKN070 12/10 Q1019
Loading
Personal Weather Stations






























Interactive Weather Map New forecast layout! Learn more

10-Day Weather Forecast

Advertisements
Track Severe Weather on mobile